createdAt,value
2022-09-23T00:01:34.525Z,39.85
2022-09-23T00:04:03.222Z,40.09
2022-09-23T00:06:31.843Z,41.26
2022-09-23T00:09:00.662Z,39.66
2022-09-23T00:11:29.831Z,40.04
2022-09-23T00:14:00.694Z,40.14
2022-09-23T00:16:35.592Z,40.21
2022-09-23T00:19:04.983Z,39.58
2022-09-23T00:21:33.565Z,40.23
2022-09-23T00:24:02.504Z,40.44
2022-09-23T00:26:30.499Z,40.55
2022-09-23T00:28:59.059Z,41.83
2022-09-23T00:31:28.616Z,41.45
2022-09-23T00:34:02.477Z,41.80
2022-09-23T00:36:33.527Z,41.82
2022-09-23T00:39:04.161Z,41.80
2022-09-23T00:41:33.369Z,42.77
2022-09-23T00:44:02.808Z,43.64
2022-09-23T00:46:38.883Z,45.15
2022-09-23T00:49:36.466Z,45.08
2022-09-23T00:52:12.952Z,45.92
2022-09-23T00:54:42.370Z,46.47
2022-09-23T00:57:12.828Z,46.35
2022-09-23T00:59:41.626Z,47.83
2022-09-23T01:02:11.160Z,48.19
2022-09-23T01:04:40.502Z,49.08
2022-09-23T01:07:09.059Z,50.60
2022-09-23T01:09:38.489Z,50.24
2022-09-23T01:12:45.120Z,50.79
2022-09-23T01:15:24.036Z,52.50
2022-09-23T01:18:18.980Z,53.52
2022-09-23T01:21:15.370Z,53.68
2022-09-23T01:24:09.179Z,55.18
2022-09-23T01:27:00.732Z,55.73
2022-09-23T01:29:37.759Z,57.80
2022-09-23T01:32:24.190Z,57.54
2022-09-23T01:35:04.247Z,59.60
2022-09-23T01:37:35.415Z,61.14
2022-09-23T01:40:11.445Z,61.07
2022-09-23T01:42:58.844Z,61.25
2022-09-23T01:45:32.991Z,61.73
2022-09-23T01:48:24.668Z,63.36
2022-09-23T01:51:03.879Z,65.06
2022-09-23T01:53:40.440Z,65.26
2022-09-23T01:56:23.373Z,65.78
2022-09-23T01:59:03.694Z,67.41
2022-09-23T02:01:42.116Z,67.42
2022-09-23T02:04:23.791Z,68.63
2022-09-23T02:07:04.741Z,69.00
2022-09-23T02:09:39.132Z,69.77
2022-09-23T02:12:13.679Z,69.86
2022-09-23T02:14:57.990Z,70.17
2022-09-23T02:17:36.423Z,70.63
2022-09-23T02:20:07.421Z,72.94
2022-09-23T02:22:58.373Z,72.98
2022-09-23T02:25:37.019Z,73.72
2022-09-23T02:28:34.152Z,73.63
2022-09-23T02:31:11.452Z,73.73
2022-09-23T02:34:01.791Z,72.99
2022-09-23T02:36:39.040Z,72.65
2022-09-23T02:39:12.905Z,74.38
2022-09-23T02:42:11.325Z,75.21
2022-09-23T02:44:39.948Z,75.31
2022-09-23T02:47:09.053Z,74.14
2022-09-23T02:49:37.927Z,74.96
2022-09-23T02:52:08.863Z,74.14
2022-09-23T02:54:38.945Z,75.36
2022-09-23T02:57:09.773Z,76.38
2022-09-23T02:59:39.108Z,76.04
2022-09-23T03:02:27.817Z,76.10
2022-09-23T03:05:28.638Z,76.58
2022-09-23T03:08:16.350Z,76.87
2022-09-23T03:10:48.463Z,76.68
2022-09-23T03:14:01.174Z,77.07
2022-09-23T03:16:57.532Z,77.58
2022-09-23T03:19:46.329Z,77.94
2022-09-23T03:22:31.529Z,78.06
2022-09-23T03:25:10.008Z,77.89
2022-09-23T03:27:40.395Z,77.55
2022-09-23T03:30:09.789Z,76.93
2022-09-23T03:32:39.799Z,77.49
2022-09-23T03:35:09.049Z,76.99
2022-09-23T03:37:43.416Z,76.42
2022-09-23T03:40:16.497Z,76.35
2022-09-23T03:42:45.425Z,75.26
2022-09-23T03:45:20.324Z,74.92
2022-09-23T03:47:49.116Z,75.23
2022-09-23T03:50:20.498Z,75.15
2022-09-23T03:52:50.624Z,75.03
2022-09-23T03:55:20.625Z,73.90
2022-09-23T03:57:49.884Z,73.77
2022-09-23T04:00:18.669Z,73.46
2022-09-23T04:02:47.288Z,72.84
2022-09-23T04:05:16.230Z,71.96
2022-09-23T04:07:44.927Z,71.83
2022-09-23T04:10:13.550Z,71.79
2022-09-23T04:12:42.200Z,71.50
2022-09-23T04:15:11.072Z,71.61
2022-09-23T04:17:39.384Z,71.42
2022-09-23T04:20:08.035Z,71.62
2022-09-23T04:22:36.839Z,71.88
2022-09-23T04:25:06.025Z,72.02
2022-09-23T04:27:37.725Z,72.68
2022-09-23T04:30:07.674Z,72.95
2022-09-23T04:32:36.247Z,72.96
2022-09-23T04:35:05.265Z,73.75
2022-09-23T04:37:33.935Z,73.43
2022-09-23T04:40:02.652Z,74.17
2022-09-23T04:42:32.115Z,74.95
2022-09-23T04:45:00.447Z,75.36
2022-09-23T04:47:29.537Z,75.60
2022-09-23T04:49:59.877Z,75.64
2022-09-23T04:52:28.885Z,75.46
2022-09-23T04:54:57.395Z,76.02
2022-09-23T04:57:25.951Z,76.51
2022-09-23T04:59:56.257Z,77.22
2022-09-23T05:02:25.989Z,77.28
2022-09-23T05:04:54.579Z,77.19
2022-09-23T05:07:23.155Z,77.44
2022-09-23T05:09:51.778Z,77.11
2022-09-23T05:12:20.095Z,77.08
2022-09-23T05:14:48.637Z,76.97
2022-09-23T05:17:17.559Z,77.24
2022-09-23T05:19:46.178Z,76.95
2022-09-23T05:22:14.504Z,76.61
2022-09-23T05:24:42.985Z,76.94
2022-09-23T05:27:11.607Z,77.10
2022-09-23T05:29:40.471Z,76.69
2022-09-23T05:32:09.274Z,77.05
2022-09-23T05:34:37.762Z,77.48
2022-09-23T05:37:06.651Z,77.78
2022-09-23T05:39:38.036Z,78.20
2022-09-23T05:42:06.963Z,78.26
2022-09-23T05:44:35.635Z,78.97
2022-09-23T05:47:04.183Z,78.73
2022-09-23T05:49:55.179Z,78.68
2022-09-23T05:52:21.407Z,79.71
2022-09-23T05:54:50.866Z,80.32
2022-09-23T05:57:19.951Z,80.87
2022-09-23T05:59:48.985Z,81.35
2022-09-23T06:02:17.371Z,81.15
2022-09-23T06:04:46.716Z,81.54
2022-09-23T06:07:15.224Z,81.98
2022-09-23T06:09:43.641Z,83.02
2022-09-23T06:12:12.156Z,83.37
2022-09-23T06:14:40.795Z,83.88
2022-09-23T06:17:09.490Z,84.33
2022-09-23T06:19:38.178Z,84.41
2022-09-23T06:22:06.814Z,83.94
2022-09-23T06:24:35.559Z,84.41
2022-09-23T06:27:04.191Z,84.71
2022-09-23T06:29:34.972Z,84.31
2022-09-23T06:32:04.318Z,84.94
2022-09-23T06:34:41.947Z,85.00
2022-09-23T06:37:19.867Z,85.61
2022-09-23T06:39:49.683Z,86.04
2022-09-23T06:42:18.420Z,85.69
2022-09-23T06:44:46.732Z,86.59
2022-09-23T06:47:15.461Z,86.17
2022-09-23T06:49:44.412Z,85.73
2022-09-23T06:52:12.921Z,86.42
2022-09-23T06:54:41.441Z,86.85
2022-09-23T06:57:11.486Z,87.44
2022-09-23T06:59:40.133Z,87.34
2022-09-23T07:02:10.920Z,87.42
2022-09-23T07:04:39.764Z,87.07
2022-09-23T07:07:08.283Z,87.23
2022-09-23T07:09:36.301Z,86.79
2022-09-23T07:12:04.657Z,87.67
2022-09-23T07:14:33.463Z,87.36
2022-09-23T07:17:02.255Z,88.39
2022-09-23T07:19:30.831Z,88.39
2022-09-23T07:21:59.430Z,89.31
2022-09-23T07:24:27.993Z,88.92
2022-09-23T07:26:56.823Z,89.88
2022-09-23T07:29:25.335Z,90.53
2022-09-23T07:31:58.606Z,90.87
2022-09-23T07:34:31.990Z,90.83
2022-09-23T07:37:00.577Z,91.25
2022-09-23T07:39:29.117Z,90.77
2022-09-23T07:41:58.047Z,91.25
2022-09-23T07:44:26.913Z,91.47
2022-09-23T07:46:55.258Z,91.26
2022-09-23T07:49:23.828Z,90.78
2022-09-23T07:51:52.748Z,92.14
2022-09-23T07:54:21.875Z,92.25
2022-09-23T07:56:50.199Z,93.24
2022-09-23T07:59:20.282Z,93.18
2022-09-23T08:01:55.758Z,93.03
2022-09-23T08:04:26.268Z,93.55
2022-09-23T08:06:58.331Z,93.85
2022-09-23T08:09:30.493Z,93.45
2022-09-23T08:11:59.030Z,93.97
2022-09-23T08:14:28.065Z,94.29
2022-09-23T08:16:56.857Z,94.68
2022-09-23T08:19:25.406Z,94.39
2022-09-23T08:21:54.014Z,94.62
2022-09-23T08:24:25.407Z,95.11
2022-09-23T08:26:55.776Z,96.47
2022-09-23T08:29:26.306Z,96.94
2022-09-23T08:31:55.388Z,96.59
2022-09-23T08:34:24.921Z,96.53
2022-09-23T08:36:53.694Z,96.47
2022-09-23T08:39:23.810Z,96.92
2022-09-23T08:41:59.222Z,97.18
2022-09-23T08:44:50.813Z,97.47
2022-09-23T08:47:31.094Z,96.73
2022-09-23T08:50:02.332Z,96.50
2022-09-23T08:52:48.664Z,96.47
2022-09-23T08:55:18.888Z,96.52
2022-09-23T08:58:25.306Z,98.69
2022-09-23T09:01:18.762Z,97.38
2022-09-23T09:03:55.064Z,96.90
2022-09-23T09:06:53.661Z,96.13
2022-09-23T09:09:32.023Z,95.39
2022-09-23T09:12:06.188Z,95.33
2022-09-23T09:14:44.601Z,93.78
2022-09-23T09:17:22.418Z,93.96
2022-09-23T09:19:59.308Z,94.06
2022-09-23T09:22:55.195Z,92.78
2022-09-23T09:25:34.679Z,93.16
2022-09-23T09:28:05.092Z,93.37
2022-09-23T09:30:36.332Z,93.17
2022-09-23T09:33:15.235Z,93.31
2022-09-23T09:35:47.170Z,93.19
2022-09-23T09:38:16.230Z,93.55
2022-09-23T09:40:48.929Z,93.86
2022-09-23T09:43:26.939Z,93.56
2022-09-23T09:46:35.314Z,94.11
2022-09-23T09:49:44.675Z,94.70
2022-09-23T09:52:16.706Z,94.81
2022-09-23T09:54:46.049Z,93.94
2022-09-23T09:57:38.169Z,94.29
2022-09-23T10:00:44.251Z,93.92
2022-09-23T10:03:15.701Z,94.31
2022-09-23T10:05:46.940Z,94.00
2022-09-23T10:08:24.670Z,94.01
2022-09-23T10:10:57.254Z,94.03
2022-09-23T10:13:26.266Z,93.83
2022-09-23T10:15:56.159Z,93.52
2022-09-23T10:18:33.224Z,92.96
2022-09-23T10:21:10.979Z,93.27
2022-09-23T10:23:53.823Z,92.49
2022-09-23T10:26:38.782Z,93.18
2022-09-23T10:29:31.867Z,93.07
2022-09-23T10:32:22.112Z,94.39
2022-09-23T10:34:55.864Z,95.00
2022-09-23T10:37:38.492Z,94.72
2022-09-23T10:41:02.966Z,94.71
2022-09-23T10:44:18.387Z,93.80
2022-09-23T10:47:17.157Z,94.31
2022-09-23T10:50:18.531Z,94.32
2022-09-23T10:53:06.046Z,94.26
2022-09-23T10:56:17.528Z,94.27
2022-09-23T10:59:07.745Z,94.38
2022-09-23T11:02:04.282Z,94.39
2022-09-23T11:04:55.949Z,94.15
2022-09-23T11:08:07.253Z,94.23
2022-09-23T11:11:02.878Z,94.88
2022-09-23T11:13:59.454Z,94.77
2022-09-23T11:16:42.900Z,94.67
2022-09-23T11:19:23.135Z,94.98
2022-09-23T11:22:33.561Z,94.64
2022-09-23T11:25:25.783Z,94.91
2022-09-23T11:28:09.755Z,93.96
2022-09-23T11:31:03.042Z,93.71
2022-09-23T11:33:51.127Z,93.18
2022-09-23T11:36:45.673Z,92.98
2022-09-23T11:39:27.781Z,92.52
2022-09-23T11:41:58.656Z,93.00
2022-09-23T11:44:30.551Z,92.70
2022-09-23T11:47:15.573Z,92.58
2022-09-23T11:49:49.443Z,92.80
2022-09-23T11:52:27.008Z,93.00
2022-09-23T11:55:22.586Z,93.25
2022-09-23T11:58:22.379Z,93.66
2022-09-23T12:01:35.223Z,93.45
2022-09-23T12:04:35.269Z,93.40
2022-09-23T12:07:14.275Z,93.38
2022-09-23T12:10:07.288Z,93.60
2022-09-23T12:13:00.423Z,93.23
2022-09-23T12:15:47.461Z,93.43
2022-09-23T12:18:37.134Z,93.65
2022-09-23T12:21:22.427Z,94.03
2022-09-23T12:24:35.129Z,94.18
2022-09-23T12:27:08.587Z,94.19
2022-09-23T12:29:39.295Z,93.85
2022-09-23T12:32:11.132Z,93.62
2022-09-23T12:34:50.418Z,93.56
2022-09-23T12:37:29.340Z,92.69
2022-09-23T12:40:20.329Z,92.25
2022-09-23T12:42:49.884Z,92.09
2022-09-23T12:45:33.895Z,92.41
2022-09-23T12:48:05.500Z,91.93
2022-09-23T12:51:06.673Z,91.86
2022-09-23T12:53:35.236Z,91.86
2022-09-23T12:56:20.196Z,92.31
2022-09-23T12:58:48.737Z,92.36
2022-09-23T13:01:18.453Z,92.94
2022-09-23T13:04:14.148Z,91.77
2022-09-23T13:06:45.532Z,90.88
2022-09-23T13:09:33.301Z,90.97
2022-09-23T13:12:08.063Z,90.86
2022-09-23T13:14:39.259Z,90.59
2022-09-23T13:17:08.016Z,90.28
2022-09-23T13:19:38.842Z,90.21
2022-09-23T13:22:12.408Z,90.05
2022-09-23T13:24:41.372Z,90.06
2022-09-23T13:27:35.754Z,91.07
2022-09-23T13:30:23.651Z,92.31
2022-09-23T13:33:19.516Z,93.58
2022-09-23T13:35:54.522Z,92.73
2022-09-23T13:38:29.399Z,92.62
2022-09-23T13:41:06.643Z,92.48
2022-09-23T13:43:43.766Z,92.33
2022-09-23T13:46:20.854Z,91.87
2022-09-23T13:48:53.396Z,92.23
2022-09-23T13:51:36.100Z,92.95
2022-09-23T13:54:06.475Z,93.24
2022-09-23T13:56:36.575Z,93.42
2022-09-23T13:59:30.088Z,93.22
2022-09-23T14:02:16.535Z,93.70
2022-09-23T14:04:45.907Z,93.96
2022-09-23T14:07:17.266Z,93.53
2022-09-23T14:09:51.455Z,92.86
2022-09-23T14:12:23.513Z,92.49
2022-09-23T14:14:54.214Z,91.40
2022-09-23T14:17:24.696Z,91.00
2022-09-23T14:19:53.452Z,90.74
2022-09-23T14:22:30.521Z,91.01
2022-09-23T14:24:59.778Z,90.26
2022-09-23T14:27:38.195Z,91.10
2022-09-23T14:30:07.403Z,88.94
2022-09-23T14:32:36.251Z,87.69
2022-09-23T14:35:05.785Z,87.88
2022-09-23T14:37:58.563Z,87.08
2022-09-23T14:40:54.652Z,86.80
2022-09-23T14:43:30.336Z,86.41
2022-09-23T14:46:00.484Z,85.76
2022-09-23T14:48:34.567Z,86.39
2022-09-23T14:51:11.969Z,85.89
2022-09-23T14:53:44.164Z,86.22
2022-09-23T14:56:21.877Z,86.26
2022-09-23T14:58:56.675Z,86.69
2022-09-23T15:01:35.973Z,86.31
2022-09-23T15:04:23.150Z,87.64
2022-09-23T15:07:17.311Z,85.38
2022-09-23T15:09:47.062Z,86.86
2022-09-23T15:12:20.208Z,84.55
2022-09-23T15:14:55.531Z,85.84
2022-09-23T15:17:25.052Z,85.12
2022-09-23T15:20:06.872Z,84.68
2022-09-23T15:22:49.898Z,84.34
2022-09-23T15:25:20.814Z,82.31
2022-09-23T15:28:12.403Z,80.13
2022-09-23T15:30:41.653Z,79.91
2022-09-23T15:33:17.849Z,80.13
2022-09-23T15:35:50.648Z,79.85
2022-09-23T15:38:19.452Z,80.64
2022-09-23T15:40:48.462Z,79.38
2022-09-23T15:43:28.347Z,78.41
2022-09-23T15:46:00.252Z,80.95
2022-09-23T15:48:38.381Z,78.74
2022-09-23T15:51:09.299Z,78.51
2022-09-23T15:53:40.279Z,78.85
2022-09-23T15:56:09.010Z,77.47
2022-09-23T15:58:38.530Z,76.64
2022-09-23T16:01:07.886Z,76.45
2022-09-23T16:03:36.997Z,76.27
2022-09-23T16:06:08.250Z,77.53
2022-09-23T16:08:36.996Z,76.24
2022-09-23T16:11:07.175Z,76.13
2022-09-23T16:13:35.818Z,74.19
2022-09-23T16:16:05.005Z,74.65
2022-09-23T16:18:34.007Z,74.94
2022-09-23T16:21:02.770Z,74.23
2022-09-23T16:23:38.861Z,73.00
2022-09-23T16:26:19.246Z,72.81
2022-09-23T16:28:49.568Z,72.01
2022-09-23T16:31:18.683Z,70.91
2022-09-23T16:33:48.822Z,70.35
2022-09-23T16:36:32.630Z,69.93
2022-09-23T16:39:04.198Z,69.94
2022-09-23T16:41:33.976Z,70.42
2022-09-23T16:44:05.880Z,72.53
2022-09-23T16:46:35.284Z,70.30
2022-09-23T16:49:04.599Z,67.51
2022-09-23T16:51:39.325Z,68.05
2022-09-23T16:54:14.459Z,69.34
2022-09-23T16:56:45.572Z,73.18
2022-09-23T16:59:15.684Z,72.32
2022-09-23T17:02:03.077Z,72.92
2022-09-23T17:04:31.676Z,71.24
2022-09-23T17:07:00.502Z,71.30
2022-09-23T17:09:31.485Z,70.43
2022-09-23T17:12:13.154Z,69.53
2022-09-23T17:14:42.061Z,70.02
2022-09-23T17:17:10.779Z,70.50
2022-09-23T17:19:42.601Z,70.73
2022-09-23T17:22:15.231Z,71.44
2022-09-23T17:24:44.073Z,70.76
2022-09-23T17:27:12.627Z,70.55
2022-09-23T17:29:41.148Z,71.29
2022-09-23T17:32:09.224Z,72.60
2022-09-23T17:34:37.739Z,73.08
2022-09-23T17:37:06.502Z,71.72
2022-09-23T17:39:35.099Z,73.38
2022-09-23T17:42:04.801Z,72.39
2022-09-23T17:44:34.568Z,71.42
2022-09-23T17:47:04.775Z,71.02
2022-09-23T17:49:36.582Z,72.00
2022-09-23T17:52:06.974Z,71.54
2022-09-23T17:54:37.487Z,71.47
2022-09-23T17:57:06.195Z,71.40
2022-09-23T17:59:35.057Z,72.17
2022-09-23T18:02:03.661Z,71.47
2022-09-23T18:04:32.279Z,71.23
2022-09-23T18:07:01.007Z,70.71
2022-09-23T18:09:29.868Z,70.57
2022-09-23T18:11:59.049Z,69.95
2022-09-23T18:14:27.684Z,69.49
2022-09-23T18:16:56.588Z,67.38
2022-09-23T18:19:25.870Z,67.41
2022-09-23T18:21:57.395Z,66.01
2022-09-23T18:24:34.190Z,64.61
2022-09-23T18:27:03.372Z,63.95
2022-09-23T18:29:32.793Z,62.68
2022-09-23T18:32:01.458Z,62.56
2022-09-23T18:34:30.300Z,60.46
2022-09-23T18:36:58.943Z,60.92
2022-09-23T18:39:27.577Z,63.12
2022-09-23T18:41:56.853Z,62.83
2022-09-23T18:44:25.591Z,63.14
2022-09-23T18:46:54.323Z,62.47
2022-09-23T18:49:41.176Z,62.22
2022-09-23T18:52:09.688Z,61.19
2022-09-23T18:54:38.233Z,59.54
2022-09-23T18:57:06.924Z,60.41
2022-09-23T18:59:35.525Z,58.05
2022-09-23T19:02:03.664Z,57.67
2022-09-23T19:04:32.317Z,59.37
2022-09-23T19:07:00.948Z,58.62
2022-09-23T19:09:29.540Z,56.72
2022-09-23T19:11:58.982Z,55.58
2022-09-23T19:14:28.030Z,54.40
2022-09-23T19:16:56.063Z,52.68
2022-09-23T19:19:24.834Z,53.32
2022-09-23T19:21:53.920Z,54.90
2022-09-23T19:24:22.461Z,54.03
2022-09-23T19:26:51.623Z,53.95
2022-09-23T19:29:23.005Z,54.74
2022-09-23T19:31:52.087Z,53.11
2022-09-23T19:34:27.285Z,50.19
2022-09-23T19:37:00.573Z,50.73
2022-09-23T19:39:32.857Z,50.10
2022-09-23T19:42:01.234Z,49.23
2022-09-23T19:44:29.983Z,50.46
2022-09-23T19:46:59.030Z,52.74
2022-09-23T19:49:27.920Z,52.54
2022-09-23T19:51:56.647Z,50.84
2022-09-23T19:54:28.383Z,48.45
2022-09-23T19:56:57.003Z,49.31
2022-09-23T19:59:27.171Z,48.49
2022-09-23T20:01:55.997Z,48.36
2022-09-23T20:04:24.558Z,48.26
2022-09-23T20:06:53.155Z,45.56
2022-09-23T20:09:22.177Z,44.70
2022-09-23T20:11:51.053Z,47.12
2022-09-23T20:14:20.611Z,47.38
2022-09-23T20:16:49.347Z,47.05
2022-09-23T20:19:18.055Z,46.21
2022-09-23T20:21:46.647Z,45.51
2022-09-23T20:24:15.341Z,46.01
2022-09-23T20:27:02.346Z,46.53
2022-09-23T20:29:31.004Z,46.01
2022-09-23T20:32:00.036Z,46.56
2022-09-23T20:34:34.656Z,45.82
2022-09-23T20:37:03.223Z,45.56
2022-09-23T20:39:31.671Z,46.12
2022-09-23T20:42:03.964Z,46.13
2022-09-23T20:44:32.512Z,46.03
2022-09-23T20:47:00.902Z,45.57
2022-09-23T20:49:30.245Z,45.48
2022-09-23T20:51:58.751Z,45.94
2022-09-23T20:54:33.506Z,46.20
2022-09-23T20:57:02.586Z,45.98
2022-09-23T20:59:31.137Z,46.74
2022-09-23T21:02:00.004Z,46.63
2022-09-23T21:04:29.631Z,46.10
2022-09-23T21:06:59.483Z,45.33
2022-09-23T21:09:28.850Z,46.90
2022-09-23T21:11:57.351Z,46.50
2022-09-23T21:14:28.796Z,47.03
2022-09-23T21:16:58.500Z,46.45
2022-09-23T21:19:29.149Z,45.82
2022-09-23T21:21:57.045Z,47.62
2022-09-23T21:25:00.397Z,45.55
2022-09-23T21:27:14.249Z,45.73
2022-09-23T21:29:42.791Z,45.72
2022-09-23T21:32:11.355Z,46.73
2022-09-23T21:34:40.274Z,46.73
2022-09-23T21:37:09.605Z,46.66
2022-09-23T21:39:38.163Z,46.66
2022-09-23T21:42:07.498Z,46.35
2022-09-23T21:44:36.305Z,45.72
2022-09-23T21:47:04.884Z,46.11
2022-09-23T21:49:33.697Z,45.03
2022-09-23T21:52:02.396Z,45.42
2022-09-23T21:54:32.476Z,44.80
2022-09-23T21:57:02.044Z,45.25
2022-09-23T21:59:30.437Z,45.01
2022-09-23T22:02:00.478Z,45.65
2022-09-23T22:04:29.155Z,46.08
2022-09-23T22:06:58.701Z,45.16
2022-09-23T22:09:27.668Z,45.53
2022-09-23T22:12:13.031Z,44.92
2022-09-23T22:14:42.283Z,45.76
2022-09-23T22:17:13.548Z,45.28
2022-09-23T22:19:46.695Z,46.12
2022-09-23T22:22:17.762Z,45.58
2022-09-23T22:24:48.275Z,45.58
2022-09-23T22:27:18.978Z,45.53
2022-09-23T22:30:06.015Z,45.78
2022-09-23T22:32:37.637Z,45.89
2022-09-23T22:35:06.686Z,44.83
2022-09-23T22:37:37.166Z,44.93
2022-09-23T22:40:11.501Z,45.72
2022-09-23T22:42:40.612Z,46.60
2022-09-23T22:45:10.686Z,47.03
2022-09-23T22:47:41.558Z,46.50
2022-09-23T22:50:11.226Z,47.13
2022-09-23T22:52:40.312Z,46.06
2022-09-23T22:55:09.389Z,45.49
2022-09-23T22:57:38.494Z,45.70
2022-09-23T23:00:09.077Z,45.36
2022-09-23T23:02:38.334Z,45.57
2022-09-23T23:05:07.359Z,46.88
2022-09-23T23:07:37.292Z,45.74
2022-09-23T23:10:10.194Z,44.89
2022-09-23T23:12:40.391Z,45.96
2022-09-23T23:15:12.966Z,45.95
2022-09-23T23:17:44.096Z,46.04
2022-09-23T23:20:12.509Z,45.82
2022-09-23T23:22:41.050Z,45.88
2022-09-23T23:25:10.657Z,44.63
2022-09-23T23:27:39.264Z,44.79
2022-09-23T23:30:08.944Z,46.49
2022-09-23T23:32:37.502Z,45.18
2022-09-23T23:35:06.811Z,45.04
2022-09-23T23:37:35.367Z,44.04
2022-09-23T23:40:05.100Z,42.83
2022-09-23T23:42:33.857Z,42.56
2022-09-23T23:45:02.709Z,42.76
2022-09-23T23:47:31.395Z,43.32
2022-09-23T23:49:59.956Z,43.34
2022-09-23T23:52:28.446Z,43.31
2022-09-23T23:54:57.270Z,49.27
2022-09-23T23:57:25.236Z,51.80
2022-09-23T23:59:53.768Z,49.98
